Time;durP1;ratioP1;P1;durP2;ratioP2;P2;SDS_P1;SDS_P2;PMS_P1;PMS_P2;Temp;Humidity;BMP_temperature;BMP_pressure;BME280_temperature;BME280_humidity;BME280_pressure;Samples;Min_cycle;Max_cycle;Signal;HPM_P1;HPM_P2
2022/10/22 00:02:06;;;;;;;13.73;11.20;;;12.80;99.90;;;;;;4864812;29;20045;-74
2022/10/22 00:04:33;;;;;;;12.63;9.80;;;12.90;99.90;;;;;;4879516;29;20526;-74
2022/10/22 00:06:58;;;;;;;10.60;9.07;;;12.70;99.90;;;;;;4880031;29;20469;-74
2022/10/22 00:09:25;;;;;;;13.23;9.60;;;12.70;99.90;;;;;;4880998;29;20045;-74
2022/10/22 00:11:51;;;;;;;12.05;9.70;;;12.80;99.90;;;;;;4864822;29;20061;-73
2022/10/22 00:14:16;;;;;;;11.48;9.02;;;12.90;99.90;;;;;;4864430;29;20056;-74
2022/10/22 00:16:42;;;;;;;12.73;8.32;;;12.80;99.90;;;;;;4881077;29;20517;-74
2022/10/22 00:19:08;;;;;;;10.93;8.65;;;12.80;99.90;;;;;;4879574;29;20140;-74
2022/10/22 00:21:34;;;;;;;12.38;8.23;;;12.80;99.90;;;;;;4864276;29;20041;-74
2022/10/22 00:24:00;;;;;;;12.13;8.05;;;12.70;99.90;;;;;;4881163;29;20116;-74
2022/10/22 00:26:26;;;;;;;14.68;8.75;;;12.80;99.90;;;;;;4880853;29;20053;-74
2022/10/22 00:28:52;;;;;;;11.13;8.30;;;12.70;99.90;;;;;;4879596;29;20056;-74
2022/10/22 00:31:19;;;;;;;11.57;8.18;;;12.30;99.90;;;;;;4879206;29;20100;-73
2022/10/22 00:33:47;;;;;;;12.30;8.30;;;12.70;99.90;;;;;;4879793;29;20045;-74
2022/10/22 00:36:15;;;;;;;13.07;9.02;;;12.70;99.90;;;;;;4880070;29;20041;-74
2022/10/22 00:38:41;;;;;;;12.50;8.57;;;12.60;99.90;;;;;;4880661;29;20098;-74
2022/10/22 00:41:07;;;;;;;11.82;8.50;;;12.60;99.90;;;;;;4848775;29;20104;-74
2022/10/22 00:43:51;;;;;;;11.23;8.15;;;12.50;99.90;;;;;;4879832;29;20053;-73
2022/10/22 00:46:17;;;;;;;10.90;7.28;;;12.60;99.90;;;;;;4880464;29;20056;-73
2022/10/22 00:48:43;;;;;;;13.38;7.00;;;12.50;99.90;;;;;;4879207;29;20049;-72
2022/10/22 00:51:08;;;;;;;11.40;8.27;;;12.50;99.90;;;;;;4878924;29;20049;-72
2022/10/22 00:53:39;;;;;;;10.07;7.20;;;12.50;99.90;;;;;;4878697;29;20080;-72
2022/10/22 00:56:06;;;;;;;11.43;7.63;;;12.50;99.90;;;;;;4880480;29;20045;-73
2022/10/22 00:58:35;;;;;;;10.57;7.35;;;12.40;99.90;;;;;;4879890;29;20069;-73
2022/10/22 01:01:02;;;;;;;10.63;7.53;;;12.40;99.90;;;;;;4878700;29;20260;-74
2022/10/22 01:03:28;;;;;;;11.23;7.40;;;12.40;99.90;;;;;;4879887;29;20168;-74
2022/10/22 01:05:58;;;;;;;8.30;6.75;;;12.40;99.90;;;;;;4877921;29;20096;-74
2022/10/22 01:08:46;;;;;;;10.93;6.97;;;12.50;99.90;;;;;;4879097;29;20132;-74
2022/10/22 01:11:22;;;;;;;9.73;6.72;;;12.40;99.90;;;;;;4863847;29;20143;-74
2022/10/22 01:14:09;;;;;;;11.85;7.40;;;12.30;99.90;;;;;;4880195;29;20056;-74
2022/10/22 01:16:57;;;;;;;8.98;6.55;;;12.30;99.90;;;;;;4878736;29;20498;-74
2022/10/22 01:19:50;;;;;;;8.30;6.72;;;12.30;99.90;;;;;;4879952;29;20135;-74
2022/10/22 01:22:39;;;;;;;11.52;7.45;;;12.20;99.90;;;;;;4864280;29;20049;-74
2022/10/22 01:25:31;;;;;;;9.07;6.53;;;12.20;99.90;;;;;;4863549;29;20053;-74
2022/10/22 01:28:22;;;;;;;8.23;5.90;;;12.30;99.90;;;;;;4877958;29;20061;-74
2022/10/22 01:30:52;;;;;;;10.30;7.00;;;12.20;99.90;;;;;;4879954;29;20049;-74
2022/10/22 01:33:21;;;;;;;9.20;6.10;;;12.10;99.90;;;;;;4879984;29;20475;-74
2022/10/22 01:35:47;;;;;;;7.47;6.03;;;12.20;99.90;;;;;;4878492;29;20549;-74
2022/10/22 01:38:18;;;;;;;10.15;6.70;;;12.00;99.90;;;;;;4879712;29;20052;-74
2022/10/22 01:40:46;;;;;;;7.32;5.65;;;12.20;99.90;;;;;;4878500;29;20084;-74
2022/10/22 01:43:12;;;;;;;11.98;6.13;;;12.10;99.90;;;;;;4878715;29;20141;-74
2022/10/22 01:45:42;;;;;;;7.22;5.60;;;12.10;99.90;;;;;;4878671;29;20088;-74
2022/10/22 01:48:31;;;;;;;8.52;5.95;;;12.20;99.90;;;;;;4879807;29;20128;-74
2022/10/22 01:51:20;;;;;;;10.23;6.35;;;12.00;99.90;;;;;;4879471;29;20049;-74
2022/10/22 01:54:05;;;;;;;7.30;5.93;;;12.00;99.90;;;;;;4880067;29;20072;-74
2022/10/22 01:56:42;;;;;;;11.35;6.25;;;12.00;99.90;;;;;;4879097;29;20053;-74
2022/10/22 01:59:39;;;;;;;8.65;5.28;;;12.00;99.90;;;;;;4879571;29;20133;-74
2022/10/22 02:02:26;;;;;;;8.85;6.03;;;12.00;99.90;;;;;;4878752;29;20459;-74
2022/10/22 02:05:03;;;;;;;9.60;5.32;;;12.00;99.90;;;;;;4878603;29;20075;-74
2022/10/22 02:07:36;;;;;;;9.70;5.90;;;12.00;99.90;;;;;;4862422;29;20140;-74
2022/10/22 02:10:04;;;;;;;9.23;5.85;;;12.00;99.90;;;;;;4879555;29;20049;-74
2022/10/22 02:12:31;;;;;;;9.02;6.07;;;12.00;99.90;;;;;;4879267;29;20053;-73
2022/10/22 02:14:57;;;;;;;8.18;6.00;;;11.90;99.90;;;;;;4879386;29;20052;-74
2022/10/22 02:17:26;;;;;;;8.00;6.10;;;12.00;99.90;;;;;;4878357;29;20085;-74
2022/10/22 02:19:53;;;;;;;12.25;6.57;;;11.90;99.90;;;;;;4878073;29;20124;-74
2022/10/22 02:22:20;;;;;;;9.10;5.85;;;12.00;99.90;;;;;;4878064;29;20057;-75
2022/10/22 02:24:47;;;;;;;9.40;6.18;;;12.00;99.90;;;;;;4862977;29;20120;-74
2022/10/22 02:27:42;;;;;;;7.75;5.05;;;11.90;99.90;;;;;;4879327;29;20088;-74
2022/10/22 02:30:15;;;;;;;8.75;5.93;;;12.00;99.90;;;;;;4878341;29;20063;-74
2022/10/22 02:32:48;;;;;;;8.32;6.50;;;11.90;99.90;;;;;;4878300;29;20462;-75
2022/10/22 02:35:18;;;;;;;10.45;5.82;;;12.00;99.90;;;;;;4877906;29;20057;-74
2022/10/22 02:37:45;;;;;;;9.27;6.25;;;12.00;99.90;;;;;;4878471;29;20446;-74
2022/10/22 02:40:11;;;;;;;10.18;6.97;;;11.90;99.90;;;;;;4877901;29;20049;-74
2022/10/22 02:42:39;;;;;;;11.27;6.22;;;12.00;99.90;;;;;;4878400;29;20443;-75
2022/10/22 02:45:06;;;;;;;9.15;5.93;;;12.00;99.90;;;;;;4878845;29;20045;-75
2022/10/22 02:47:31;;;;;;;9.93;6.10;;;12.00;99.90;;;;;;4877562;29;20056;-74
2022/10/22 02:49:57;;;;;;;9.65;6.30;;;12.10;99.90;;;;;;4878265;29;20049;-75
2022/10/22 02:52:23;;;;;;;10.73;6.88;;;12.10;99.90;;;;;;4877924;29;20052;-75
2022/10/22 02:54:49;;;;;;;12.07;6.78;;;12.20;99.90;;;;;;4880180;29;20045;-75
2022/10/22 02:57:14;;;;;;;8.75;6.30;;;12.00;99.90;;;;;;4881186;29;20041;-74
2022/10/22 02:59:40;;;;;;;11.05;6.85;;;12.00;99.90;;;;;;4865515;29;20100;-74
2022/10/22 03:02:06;;;;;;;12.32;7.13;;;12.10;99.90;;;;;;4881886;29;20842;-74
2022/10/22 03:04:31;;;;;;;10.88;6.47;;;12.00;99.90;;;;;;4865436;29;20049;-74
2022/10/22 03:06:57;;;;;;;7.45;5.57;;;12.20;99.90;;;;;;4881222;29;20061;-75
2022/10/22 03:09:23;;;;;;;7.10;5.43;;;12.10;99.90;;;;;;4880723;29;20112;-74
2022/10/22 03:11:49;;;;;;;7.80;6.15;;;11.90;99.90;;;;;;4880707;29;20052;-74
2022/10/22 03:14:15;;;;;;;10.18;6.95;;;11.80;99.90;;;;;;4881989;29;20052;-74
2022/10/22 03:16:40;;;;;;;8.38;6.05;;;12.10;99.90;;;;;;4881062;29;20084;-74
2022/10/22 03:19:06;;;;;;;11.20;6.43;;;11.90;99.90;;;;;;4881034;29;20496;-74
2022/10/22 03:21:42;;;;;;;9.40;6.72;;;11.90;99.90;;;;;;4882125;29;20132;-74
2022/10/22 03:24:13;;;;;;;11.07;6.75;;;11.90;99.90;;;;;;4881283;29;20063;-74
2022/10/22 03:26:40;;;;;;;8.73;5.85;;;12.00;99.90;;;;;;4881810;29;20140;-74
2022/10/22 03:29:08;;;;;;;8.57;6.57;;;11.80;99.90;;;;;;4865180;29;20051;-75
2022/10/22 03:31:34;;;;;;;8.52;5.82;;;11.90;99.90;;;;;;4882017;29;20053;-74
2022/10/22 03:33:59;;;;;;;10.05;7.07;;;12.00;99.90;;;;;;4882082;29;20466;-74
2022/10/22 03:36:25;;;;;;;11.57;6.55;;;11.80;99.90;;;;;;4864881;29;20124;-74
2022/10/22 03:38:51;;;;;;;11.10;6.13;;;11.90;99.90;;;;;;4865206;29;20406;-74
2022/10/22 03:41:17;;;;;;;10.82;7.07;;;11.80;99.90;;;;;;4865100;29;20049;-74
2022/10/22 03:43:48;;;;;;;12.50;6.38;;;11.90;99.90;;;;;;4880498;29;20064;-74
2022/10/22 03:46:14;;;;;;;10.02;6.10;;;11.80;99.90;;;;;;4866005;29;20053;-74
2022/10/22 03:48:39;;;;;;;12.07;6.25;;;11.80;99.90;;;;;;4881620;29;20056;-75
2022/10/22 03:51:05;;;;;;;9.43;6.72;;;12.00;99.90;;;;;;4880327;29;20128;-75
2022/10/22 03:53:31;;;;;;;8.65;6.00;;;11.80;99.90;;;;;;4865242;29;20052;-75
2022/10/22 03:55:56;;;;;;;10.80;6.50;;;11.90;99.90;;;;;;4880489;29;20053;-75
2022/10/22 03:58:22;;;;;;;10.35;6.50;;;11.80;99.90;;;;;;4879973;29;20049;-75
2022/10/22 04:00:48;;;;;;;9.70;5.97;;;11.80;99.90;;;;;;4880723;29;20045;-75
2022/10/22 04:03:13;;;;;;;11.90;6.95;;;11.80;99.90;;;;;;4880086;29;20049;-75
2022/10/22 04:05:39;;;;;;;9.52;6.95;;;12.10;99.90;;;;;;4879610;29;20140;-74
2022/10/22 04:08:05;;;;;;;10.45;6.15;;;11.80;99.90;;;;;;4849441;29;20061;-75
2022/10/22 04:10:30;;;;;;;9.63;6.25;;;12.10;99.90;;;;;;4881082;29;20049;-74
2022/10/22 04:12:56;;;;;;;9.80;7.28;;;11.90;99.90;;;;;;4849229;29;20057;-74
2022/10/22 04:15:22;;;;;;;11.48;7.03;;;11.80;99.90;;;;;;4880341;29;20045;-75
2022/10/22 04:17:48;;;;;;;9.20;6.22;;;12.10;99.90;;;;;;4879924;29;20486;-75
2022/10/22 04:20:13;;;;;;;11.43;6.30;;;12.00;99.90;;;;;;4864335;29;20049;-75
2022/10/22 04:22:39;;;;;;;11.77;7.22;;;11.90;99.90;;;;;;4879859;29;20057;-74
2022/10/22 04:25:05;;;;;;;10.70;6.93;;;12.00;99.90;;;;;;4880822;29;20053;-74
2022/10/22 04:27:32;;;;;;;10.65;6.65;;;12.00;99.90;;;;;;4879580;29;20052;-75
2022/10/22 04:29:58;;;;;;;10.95;7.15;;;12.00;99.90;;;;;;4880856;29;20041;-74
2022/10/22 04:32:25;;;;;;;10.52;6.57;;;11.90;99.90;;;;;;4879649;29;20055;-75
2022/10/22 04:34:51;;;;;;;11.73;7.10;;;12.10;99.90;;;;;;4880389;29;20087;-75
2022/10/22 04:37:16;;;;;;;10.48;7.70;;;11.90;99.90;;;;;;4879477;29;20537;-74
2022/10/22 04:39:42;;;;;;;8.20;6.78;;;11.80;99.90;;;;;;4880596;29;20052;-74
2022/10/22 04:42:07;;;;;;;11.20;7.55;;;12.10;99.90;;;;;;4880288;29;20089;-75
2022/10/22 04:44:33;;;;;;;10.15;7.93;;;11.90;99.90;;;;;;4879581;29;20049;-75
2022/10/22 04:46:59;;;;;;;13.30;8.48;;;11.70;99.90;;;;;;4863935;29;20053;-75
2022/10/22 04:49:25;;;;;;;10.90;7.78;;;11.90;99.90;;;;;;4864113;29;20131;-74
2022/10/22 04:51:50;;;;;;;12.27;8.38;;;12.00;99.90;;;;;;4879423;29;20053;-74
2022/10/22 04:54:16;;;;;;;11.05;7.45;;;11.90;99.90;;;;;;4879323;29;20494;-74
2022/10/22 04:56:42;;;;;;;11.30;7.72;;;11.90;99.90;;;;;;4878944;29;20056;-75
2022/10/22 04:59:11;;;;;;;11.90;7.93;;;11.80;99.90;;;;;;4879445;29;20053;-75
2022/10/22 05:01:42;;;;;;;11.68;7.88;;;11.80;99.90;;;;;;4879206;29;20056;-75
2022/10/22 05:04:11;;;;;;;14.85;9.05;;;12.10;99.90;;;;;;4879250;29;20085;-74
2022/10/22 05:06:37;;;;;;;10.85;7.68;;;11.80;99.90;;;;;;4878481;29;20137;-74
2022/10/22 05:09:05;;;;;;;11.25;7.55;;;11.80;99.90;;;;;;4878994;29;20056;-75
2022/10/22 05:11:36;;;;;;;10.32;7.68;;;12.30;99.90;;;;;;4879185;29;20079;-75
2022/10/22 05:14:04;;;;;;;9.27;7.00;;;11.80;99.90;;;;;;4880339;29;20045;-75
2022/10/22 05:16:31;;;;;;;10.20;7.05;;;11.80;99.90;;;;;;4878927;29;20075;-75
2022/10/22 05:18:58;;;;;;;12.52;7.63;;;11.80;99.90;;;;;;4880096;29;20135;-75
2022/10/22 05:21:25;;;;;;;10.88;7.38;;;11.80;99.90;;;;;;4879784;29;20486;-74
2022/10/22 05:23:51;;;;;;;12.65;8.35;;;11.90;99.90;;;;;;4863294;29;20443;-75
2022/10/22 05:26:19;;;;;;;13.70;7.75;;;11.80;99.90;;;;;;4879062;29;20049;-75
2022/10/22 05:28:45;;;;;;;11.50;7.65;;;11.90;99.90;;;;;;4879425;29;20053;-75
2022/10/22 05:31:12;;;;;;;10.73;7.50;;;11.70;99.90;;;;;;4879024;29;20060;-75
2022/10/22 05:33:39;;;;;;;13.63;7.60;;;11.80;99.90;;;;;;4879034;29;20049;-75
2022/10/22 05:36:07;;;;;;;10.77;7.55;;;11.80;99.90;;;;;;4879230;29;20057;-74
2022/10/22 05:38:33;;;;;;;11.00;7.90;;;11.90;99.90;;;;;;4879559;29;20518;-75
2022/10/22 05:41:07;;;;;;;9.32;7.00;;;12.00;99.90;;;;;;4863263;29;20053;-75
2022/10/22 05:43:33;;;;;;;11.82;7.40;;;11.80;99.90;;;;;;4879776;29;20057;-74
2022/10/22 05:46:11;;;;;;;12.48;8.20;;;11.80;99.90;;;;;;4879626;29;20052;-75
2022/10/22 05:48:37;;;;;;;9.90;7.40;;;11.90;99.90;;;;;;4878410;29;20085;-74
2022/10/22 05:51:09;;;;;;;12.05;8.15;;;11.70;99.90;;;;;;4878287;29;20076;-74
2022/10/22 05:53:36;;;;;;;12.47;8.20;;;11.80;99.90;;;;;;4879733;29;20064;-75
2022/10/22 05:56:05;;;;;;;10.30;7.13;;;12.00;99.90;;;;;;4879722;29;20293;-75
2022/10/22 05:58:31;;;;;;;13.18;7.53;;;11.80;99.90;;;;;;4878352;29;20049;-74
2022/10/22 06:01:01;;;;;;;11.95;8.48;;;11.80;99.90;;;;;;4879392;29;20067;-75
2022/10/22 06:03:28;;;;;;;11.63;7.70;;;11.70;99.90;;;;;;4878364;29;20053;-75
2022/10/22 06:05:54;;;;;;;13.32;8.32;;;11.80;99.90;;;;;;4878062;29;20057;-74
2022/10/22 06:08:19;;;;;;;12.85;8.73;;;11.80;99.90;;;;;;4878682;29;20057;-74
2022/10/22 06:10:45;;;;;;;12.80;8.35;;;11.60;99.90;;;;;;4878794;29;20048;-75
2022/10/22 06:13:11;;;;;;;13.50;8.75;;;11.60;99.90;;;;;;4878191;29;20105;-75
2022/10/22 06:15:36;;;;;;;11.27;7.97;;;11.80;99.90;;;;;;4878095;29;20049;-74
2022/10/22 06:18:02;;;;;;;13.32;8.35;;;11.70;99.90;;;;;;4862706;29;20053;-74
2022/10/22 06:20:28;;;;;;;12.32;8.23;;;11.70;99.90;;;;;;4878199;29;20558;-75
2022/10/22 06:22:53;;;;;;;11.23;8.40;;;11.70;99.90;;;;;;4878262;29;20095;-75
2022/10/22 06:25:19;;;;;;;11.95;7.80;;;11.70;99.90;;;;;;4862839;29;20109;-75
2022/10/22 06:27:50;;;;;;;12.02;7.85;;;11.80;99.90;;;;;;4878225;29;20049;-75
2022/10/22 06:30:16;;;;;;;11.98;8.43;;;11.90;99.90;;;;;;4881191;29;20092;-74
2022/10/22 06:32:41;;;;;;;12.73;9.10;;;11.70;99.90;;;;;;4882710;29;20092;-75
2022/10/22 06:35:07;;;;;;;15.10;9.48;;;11.70;99.90;;;;;;4882553;29;20084;-75
2022/10/22 06:37:33;;;;;;;14.38;9.23;;;11.70;99.90;;;;;;4883030;29;20049;-75
2022/10/22 06:39:59;;;;;;;15.52;10.35;;;11.80;99.90;;;;;;4881495;29;20041;-75
2022/10/22 06:42:26;;;;;;;14.68;9.88;;;11.80;99.90;;;;;;4882081;29;20076;-74
2022/10/22 06:44:51;;;;;;;15.13;9.23;;;12.00;99.90;;;;;;4882575;29;20577;-75
2022/10/22 06:47:17;;;;;;;15.55;9.85;;;11.80;99.90;;;;;;4865442;29;20243;-75
2022/10/22 06:49:43;;;;;;;14.25;8.88;;;11.90;99.90;;;;;;4865737;29;20133;-75
2022/10/22 06:52:09;;;;;;;15.48;8.52;;;12.00;99.90;;;;;;4881114;29;20053;-74
2022/10/22 06:54:34;;;;;;;12.52;8.93;;;12.10;99.90;;;;;;4881246;29;20056;-75
2022/10/22 06:57:00;;;;;;;13.68;9.43;;;12.10;99.90;;;;;;4882498;29;20482;-75
2022/10/22 06:59:26;;;;;;;14.27;9.10;;;12.00;99.90;;;;;;4881029;29;20088;-74
2022/10/22 07:01:52;;;;;;;14.27;8.60;;;12.00;99.90;;;;;;4880191;29;20056;-75
2022/10/22 07:04:17;;;;;;;16.13;9.18;;;11.90;99.90;;;;;;4865519;29;20084;-74
2022/10/22 07:06:43;;;;;;;12.25;7.82;;;12.10;99.90;;;;;;4881778;29;20065;-75
2022/10/22 07:09:09;;;;;;;11.48;8.00;;;12.10;99.90;;;;;;4882318;29;20049;-74
2022/10/22 07:11:44;;;;;;;13.77;9.02;;;12.10;99.90;;;;;;4881325;29;20510;-74
2022/10/22 07:14:11;;;;;;;11.90;9.00;;;12.30;99.90;;;;;;4865500;29;20057;-75
2022/10/22 07:16:37;;;;;;;13.20;8.60;;;12.30;99.90;;;;;;4880858;29;20057;-75
2022/10/22 07:19:03;;;;;;;13.02;7.50;;;12.20;99.90;;;;;;4880756;29;20071;-75
2022/10/22 07:21:30;;;;;;;14.43;8.02;;;12.20;99.90;;;;;;4880487;29;20092;-75
2022/10/22 07:23:57;;;;;;;14.48;7.82;;;12.10;99.90;;;;;;4896446;29;20132;-75
2022/10/22 07:26:29;;;;;;;11.43;7.47;;;12.40;99.90;;;;;;4880653;29;20067;-75
2022/10/22 07:28:55;;;;;;;13.57;7.78;;;12.30;99.90;;;;;;4880700;29;20402;-74
2022/10/22 07:31:21;;;;;;;11.02;8.18;;;12.30;99.90;;;;;;4881478;29;20048;-74
2022/10/22 07:33:47;;;;;;;11.57;7.32;;;12.40;99.90;;;;;;4865470;29;20710;-74
2022/10/22 07:36:17;;;;;;;10.45;7.38;;;12.40;99.90;;;;;;4879734;29;20057;-74
2022/10/22 07:38:52;;;;;;;13.38;7.93;;;12.40;99.90;;;;;;4881975;29;20045;-74
2022/10/22 07:41:17;;;;;;;11.50;7.30;;;12.50;99.90;;;;;;4881787;29;20045;-75
2022/10/22 07:43:43;;;;;;;11.10;7.70;;;12.50;99.90;;;;;;4880578;29;20132;-74
2022/10/22 07:46:09;;;;;;;12.70;7.20;;;12.60;99.90;;;;;;4865517;29;20136;-75
2022/10/22 07:48:36;;;;;;;15.05;7.70;;;12.50;99.90;;;;;;4865343;29;20049;-74
2022/10/22 07:51:02;;;;;;;10.70;7.50;;;12.70;99.90;;;;;;4880609;29;20049;-73
2022/10/22 07:53:28;;;;;;;15.82;8.20;;;12.70;99.90;;;;;;4865153;29;20053;-74
2022/10/22 07:55:54;;;;;;;12.35;7.85;;;12.80;99.90;;;;;;4880507;29;20056;-74
2022/10/22 07:58:20;;;;;;;13.20;7.55;;;12.80;99.90;;;;;;4864753;29;20048;-74
2022/10/22 08:00:46;;;;;;;12.30;8.05;;;12.90;99.90;;;;;;4881596;29;20068;-74
2022/10/22 08:03:14;;;;;;;12.20;7.78;;;12.90;99.90;;;;;;4880635;29;20081;-74
2022/10/22 08:05:42;;;;;;;11.40;7.95;;;13.10;99.90;;;;;;4880818;29;20057;-74
2022/10/22 08:08:12;;;;;;;12.00;7.68;;;12.90;99.90;;;;;;4880473;29;20053;-74
2022/10/22 08:10:38;;;;;;;15.63;7.97;;;12.80;99.90;;;;;;4880043;29;20045;-74
2022/10/22 08:13:05;;;;;;;11.43;7.25;;;13.10;99.90;;;;;;4881336;29;20080;-75
2022/10/22 08:15:31;;;;;;;15.95;8.57;;;13.00;99.90;;;;;;4880171;29;20053;-76
2022/10/22 08:17:56;;;;;;;13.88;7.78;;;13.10;99.90;;;;;;4865155;29;20076;-75
2022/10/22 08:20:22;;;;;;;16.70;8.15;;;13.10;99.90;;;;;;4877546;29;20040;-74
2022/10/22 08:22:48;;;;;;;22.77;10.25;;;13.10;99.90;;;;;;4878727;29;20044;-74
2022/10/22 08:25:16;;;;;;;12.80;7.40;;;13.40;99.90;;;;;;4880647;29;20063;-74
2022/10/22 08:27:43;;;;;;;11.73;7.55;;;13.20;99.90;;;;;;4880643;29;20391;-75
2022/10/22 08:30:09;;;;;;;9.25;6.20;;;13.20;99.90;;;;;;4879562;29;20038;-74
2022/10/22 08:32:35;;;;;;;13.52;6.80;;;13.30;99.90;;;;;;4880014;29;20135;-74
2022/10/22 08:35:00;;;;;;;12.40;6.03;;;13.30;99.90;;;;;;4879003;29;20120;-77
2022/10/22 08:37:26;;;;;;;11.68;6.13;;;13.40;99.90;;;;;;4871001;29;20055;-74
2022/10/22 08:39:52;;;;;;;10.75;6.38;;;13.40;99.90;;;;;;4877408;29;20056;-74
2022/10/22 08:42:52;;;;;;;14.98;6.90;;;13.50;99.90;;;;;;4863263;29;20052;-73
2022/10/22 08:45:40;;;;;;;12.32;6.35;;;13.50;99.90;;;;;;4876415;29;20048;-73
2022/10/22 08:48:24;;;;;;;12.65;6.68;;;13.30;99.90;;;;;;4876494;29;20120;-75
2022/10/22 08:50:53;;;;;;;12.02;6.13;;;13.50;99.90;;;;;;4874805;29;20084;-74
2022/10/22 08:53:37;;;;;;;14.05;6.00;;;13.80;99.90;;;;;;4878574;29;20501;-74
2022/10/22 08:56:03;;;;;;;8.38;4.85;;;13.50;99.90;;;;;;4879597;29;20045;-74
2022/10/22 08:58:34;;;;;;;10.93;5.72;;;13.60;99.90;;;;;;4879853;29;20059;-75
2022/10/22 09:01:10;;;;;;;10.80;5.13;;;13.60;99.90;;;;;;4879568;29;20041;-74
2022/10/22 09:03:51;;;;;;;8.52;4.95;;;13.70;99.90;;;;;;4877978;29;20426;-74
2022/10/22 09:06:32;;;;;;;12.02;4.85;;;13.70;99.90;;;;;;4876913;29;20053;-74
2022/10/22 09:09:00;;;;;;;10.60;4.57;;;13.80;99.90;;;;;;4878946;29;20052;-74
2022/10/22 09:11:35;;;;;;;9.75;5.38;;;13.50;99.90;;;;;;4874360;29;20486;-74
2022/10/22 09:14:02;;;;;;;9.80;4.28;;;13.80;99.90;;;;;;4863161;29;20065;-74
2022/10/22 09:17:01;;;;;;;9.07;4.50;;;13.70;99.90;;;;;;4878363;29;20053;-74
2022/10/22 09:19:42;;;;;;;7.03;4.20;;;13.90;99.90;;;;;;4875350;29;20051;-75
2022/10/22 09:22:38;;;;;;;9.85;4.18;;;14.20;99.90;;;;;;4868866;29;20053;-74
2022/10/22 09:25:18;;;;;;;7.38;3.72;;;13.90;99.90;;;;;;4862787;29;20430;-74
2022/10/22 09:27:44;;;;;;;9.13;4.00;;;14.10;99.90;;;;;;4878287;29;20056;-74
2022/10/22 09:30:19;;;;;;;10.65;4.03;;;14.10;99.90;;;;;;4875727;29;20046;-72
2022/10/22 09:32:46;;;;;;;7.93;4.03;;;14.40;99.90;;;;;;4875457;29;20128;-73
2022/10/22 09:35:13;;;;;;;6.30;3.53;;;14.20;99.90;;;;;;4876141;29;20055;-74
2022/10/22 09:37:51;;;;;;;7.45;3.95;;;14.40;99.90;;;;;;4878462;29;20383;-73
2022/10/22 09:40:17;;;;;;;7.57;4.10;;;14.40;99.90;;;;;;4876644;29;20081;-75
2022/10/22 09:42:45;;;;;;;8.20;3.53;;;14.40;99.90;;;;;;4877636;29;20077;-74
2022/10/22 09:45:18;;;;;;;11.20;3.97;;;14.50;99.90;;;;;;4876134;29;20120;-74
2022/10/22 09:47:43;;;;;;;7.43;3.22;;;14.60;99.90;;;;;;4878615;29;20104;-73
2022/10/22 09:50:09;;;;;;;8.60;3.67;;;14.60;99.90;;;;;;4874772;29;20049;-74
2022/10/22 09:52:35;;;;;;;7.03;3.45;;;14.80;99.90;;;;;;4877317;29;20045;-74
2022/10/22 09:55:05;;;;;;;9.80;3.80;;;14.90;99.90;;;;;;4877311;29;20056;-75
2022/10/22 09:57:31;;;;;;;9.57;3.05;;;14.70;99.90;;;;;;4878810;29;20123;-73
2022/10/22 09:59:57;;;;;;;8.35;3.00;;;14.90;99.90;;;;;;4877653;29;20052;-74
2022/10/22 10:02:27;;;;;;;7.78;3.70;;;14.80;99.90;;;;;;4878559;29;20049;-72
2022/10/22 10:04:55;;;;;;;6.30;3.33;;;14.90;99.90;;;;;;4880313;29;20048;-73
2022/10/22 10:07:23;;;;;;;8.63;3.72;;;;;;;;;;4865179;29;20057;-74
2022/10/22 10:09:50;;;;;;;6.30;3.03;;;15.00;99.90;;;;;;4882617;29;20061;-73
2022/10/22 10:12:46;;;;;;;7.53;2.72;;;14.90;99.90;;;;;;4865699;29;20518;-72
2022/10/22 10:15:44;;;;;;;9.13;2.88;;;15.00;99.90;;;;;;4880056;29;20581;-73
2022/10/22 10:18:33;;;;;;;10.43;3.30;;;15.20;99.90;;;;;;4880689;29;20041;-73
2022/10/22 10:21:12;;;;;;;6.95;2.95;;;15.20;99.90;;;;;;4881728;29;20124;-73
2022/10/22 10:23:56;;;;;;;7.05;2.95;;;;;;;;;;4881543;29;20063;-74
2022/10/22 10:26:59;;;;;;;8.60;2.83;;;15.00;99.90;;;;;;4881558;29;20053;-74
2022/10/22 10:29:44;;;;;;;6.97;2.73;;;15.20;99.90;;;;;;4881497;29;20148;-73
2022/10/22 10:32:47;;;;;;;8.10;3.00;;;15.20;99.90;;;;;;4863768;29;20091;-72
2022/10/22 10:35:24;;;;;;;8.88;2.80;;;14.90;99.90;;;;;;4880179;29;20104;-73
2022/10/22 10:38:08;;;;;;;6.60;2.33;;;15.00;99.90;;;;;;4879217;29;20085;-73
2022/10/22 10:40:50;;;;;;;6.63;3.25;;;15.10;99.90;;;;;;4871762;29;20046;-73
2022/10/22 10:43:28;;;;;;;7.97;3.10;;;15.20;99.90;;;;;;4879765;29;20056;-72
2022/10/22 10:45:59;;;;;;;7.90;2.78;;;15.00;99.90;;;;;;4880380;29;20045;-73
2022/10/22 10:48:43;;;;;;;5.80;3.10;;;15.20;99.90;;;;;;4880662;29;20097;-73
2022/10/22 10:51:27;;;;;;;9.43;3.63;;;15.10;99.90;;;;;;4879949;29;20048;-73
2022/10/22 10:54:06;;;;;;;10.73;4.10;;;15.10;99.90;;;;;;4880317;29;20041;-73
2022/10/22 10:56:46;;;;;;;6.82;3.97;;;15.20;99.90;;;;;;4864162;29;20109;-73
2022/10/22 10:59:33;;;;;;;9.13;3.80;;;15.20;99.90;;;;;;4878989;29;20080;-72
2022/10/22 11:02:23;;;;;;;10.80;4.43;;;15.20;99.90;;;;;;4880832;29;20136;-73
2022/10/22 11:04:48;;;;;;;9.68;4.32;;;15.50;99.90;;;;;;4881774;29;20045;-73
2022/10/22 11:07:18;;;;;;;6.95;4.00;;;15.20;99.90;;;;;;4864109;29;20116;-72
2022/10/22 11:09:56;;;;;;;10.73;4.20;;;15.40;99.90;;;;;;4881432;29;20056;-72
2022/10/22 11:12:37;;;;;;;7.60;3.88;;;15.30;99.90;;;;;;4880332;29;20422;-74
2022/10/22 11:15:28;;;;;;;7.10;3.75;;;15.40;99.90;;;;;;4880975;29;20051;-73
2022/10/22 11:18:03;;;;;;;6.40;3.53;;;15.20;99.90;;;;;;4871985;29;20064;-72
2022/10/22 11:20:49;;;;;;;9.30;4.18;;;15.30;99.90;;;;;;4878933;29;20045;-72
2022/10/22 11:24:01;;;;;;;6.53;3.65;;;15.30;99.90;;;;;;4878195;29;20185;-72
2022/10/22 11:26:47;;;;;;;10.57;4.03;;;15.30;99.90;;;;;;4842680;29;20081;-73
2022/10/22 11:29:38;;;;;;;5.93;4.13;;;15.20;99.90;;;;;;4843653;29;20133;-72
2022/10/22 11:32:06;;;;;;;11.23;4.45;;;15.40;99.90;;;;;;4871500;29;20061;-73
2022/10/22 11:34:47;;;;;;;8.48;4.15;;;15.40;99.90;;;;;;4881017;29;20049;-72
2022/10/22 11:37:14;;;;;;;8.55;3.90;;;15.10;99.90;;;;;;4878639;29;20053;-72
2022/10/22 11:39:42;;;;;;;6.28;3.45;;;15.40;99.90;;;;;;4879910;29;20049;-72
2022/10/22 11:42:19;;;;;;;9.73;4.30;;;15.20;99.90;;;;;;4862005;29;20104;-72
2022/10/22 11:45:10;;;;;;;7.75;3.80;;;15.10;99.90;;;;;;4871743;29;20075;-72
2022/10/22 11:48:09;;;;;;;6.82;4.00;;;15.20;99.90;;;;;;4876059;29;20061;-73
2022/10/22 11:50:53;;;;;;;11.38;5.05;;;15.20;99.90;;;;;;4888910;29;20049;-73
2022/10/22 11:53:37;;;;;;;10.35;4.93;;;15.20;99.90;;;;;;4875427;29;20049;-73
2022/10/22 11:56:06;;;;;;;11.10;4.80;;;15.30;99.90;;;;;;4878532;29;20073;-72
2022/10/22 11:58:41;;;;;;;11.43;4.95;;;15.50;99.90;;;;;;4860828;29;20521;-75
2022/10/22 12:01:07;;;;;;;9.45;5.50;;;15.20;99.90;;;;;;4879443;29;20104;-74
2022/10/22 12:03:33;;;;;;;12.18;6.00;;;15.10;99.90;;;;;;4879767;29;20112;-74
2022/10/22 12:06:11;;;;;;;8.90;5.57;;;15.20;99.90;;;;;;4878959;29;20053;-73
2022/10/22 12:08:43;;;;;;;12.60;5.43;;;15.30;99.90;;;;;;4879612;29;20768;-73
2022/10/22 12:11:22;;;;;;;8.95;5.40;;;15.20;99.90;;;;;;4864493;29;20063;-73
2022/10/22 12:13:59;;;;;;;10.45;5.60;;;15.00;99.90;;;;;;4864199;29;20118;-73
2022/10/22 12:16:28;;;;;;;13.27;5.75;;;15.20;99.90;;;;;;4880741;29;20132;-73
2022/10/22 12:19:13;;;;;;;14.55;5.85;;;15.50;99.90;;;;;;4878734;29;20049;-74
2022/10/22 12:21:47;;;;;;;11.23;5.40;;;15.30;99.90;;;;;;4879845;29;20127;-73
2022/10/22 12:24:19;;;;;;;8.38;5.22;;;15.00;99.90;;;;;;4879578;29;20127;-73
2022/10/22 12:26:45;;;;;;;8.27;4.83;;;15.30;99.90;;;;;;4878557;29;20057;-72
2022/10/22 12:29:14;;;;;;;10.35;5.10;;;15.20;99.90;;;;;;4879369;29;20053;-74
2022/10/22 12:31:43;;;;;;;8.45;4.60;;;15.20;99.90;;;;;;4880634;29;20090;-73
2022/10/22 12:34:22;;;;;;;8.05;5.07;;;15.20;99.90;;;;;;4879224;29;20506;-73
2022/10/22 12:36:49;;;;;;;8.25;4.53;;;15.20;99.90;;;;;;4880040;29;20581;-72
2022/10/22 12:39:19;;;;;;;6.18;4.65;;;15.20;99.90;;;;;;4879389;29;20065;-72
2022/10/22 12:41:45;;;;;;;8.05;4.93;;;15.20;99.90;;;;;;4879070;29;20070;-73
2022/10/22 12:44:13;;;;;;;7.75;4.05;;;15.40;99.90;;;;;;4878864;29;20060;-73
2022/10/22 12:46:40;;;;;;;8.45;4.53;;;15.30;99.90;;;;;;4879313;29;20041;-72
2022/10/22 12:49:21;;;;;;;6.57;5.15;;;15.30;99.90;;;;;;4880213;29;20059;-74
2022/10/22 12:51:48;;;;;;;11.75;5.32;;;15.10;99.90;;;;;;4880510;29;20044;-74
2022/10/22 12:54:30;;;;;;;9.85;4.57;;;15.40;99.90;;;;;;4879267;29;20136;-74
2022/10/22 12:56:57;;;;;;;10.70;4.65;;;15.40;99.90;;;;;;4879399;29;20136;-73
2022/10/22 12:59:24;;;;;;;10.05;4.97;;;15.10;99.90;;;;;;4848806;29;20064;-74
2022/10/22 13:01:51;;;;;;;10.38;4.75;;;15.00;99.90;;;;;;4879646;29;20063;-74